createdAt,value
2022-09-09T00:00:16.738Z,0.63
2022-09-09T00:02:52.397Z,0.97
2022-09-09T00:05:31.109Z,0.80
2022-09-09T00:08:05.239Z,0.80
2022-09-09T00:10:36.346Z,0.63
2022-09-09T00:13:17.621Z,0.80
2022-09-09T00:15:59.934Z,1.00
2022-09-09T00:18:35.069Z,0.80
2022-09-09T00:21:09.670Z,0.80
2022-09-09T00:23:41.544Z,0.67
2022-09-09T00:26:14.868Z,0.90
2022-09-09T00:28:49.081Z,0.70
2022-09-09T00:31:23.323Z,0.90
2022-09-09T00:33:52.806Z,0.70
2022-09-09T00:36:26.307Z,0.87
2022-09-09T00:38:59.922Z,0.80
2022-09-09T00:41:38.900Z,0.80
2022-09-09T00:44:23.271Z,0.50
2022-09-09T00:47:06.740Z,0.67
2022-09-09T00:49:49.118Z,0.60
2022-09-09T00:52:32.290Z,0.80
2022-09-09T00:55:09.869Z,0.53
2022-09-09T00:57:40.110Z,0.60
2022-09-09T01:00:24.011Z,0.70
2022-09-09T01:03:03.275Z,0.50
2022-09-09T01:05:43.159Z,0.63
2022-09-09T01:08:23.770Z,0.50
2022-09-09T01:10:54.683Z,0.60
2022-09-09T01:13:27.284Z,0.63
2022-09-09T01:16:01.224Z,0.60
2022-09-09T01:18:35.725Z,0.40
2022-09-09T01:21:12.114Z,0.77
2022-09-09T01:24:07.119Z,0.70
2022-09-09T01:26:39.218Z,0.60
2022-09-09T01:29:10.613Z,0.50
2022-09-09T01:31:41.932Z,0.50
2022-09-09T01:34:14.461Z,0.70
2022-09-09T01:36:48.851Z,0.50
2022-09-09T01:39:17.129Z,0.67
2022-09-09T01:41:47.070Z,0.70
2022-09-09T01:44:15.687Z,0.60
2022-09-09T01:46:43.852Z,0.67
2022-09-09T01:49:13.573Z,0.73
2022-09-09T01:51:43.510Z,0.60
2022-09-09T01:54:11.684Z,0.60
2022-09-09T01:56:50.316Z,0.77
2022-09-09T01:59:32.562Z,0.80
2022-09-09T02:02:13.523Z,0.70
2022-09-09T02:04:43.782Z,0.70
2022-09-09T02:07:25.642Z,0.60
2022-09-09T02:10:00.881Z,0.70
2022-09-09T02:12:32.828Z,0.70
2022-09-09T02:15:05.812Z,0.60
2022-09-09T02:17:37.905Z,0.63
2022-09-09T02:20:10.175Z,0.47
2022-09-09T02:22:41.992Z,0.97
2022-09-09T02:25:14.266Z,0.77
2022-09-09T02:27:45.931Z,0.60
2022-09-09T02:30:15.973Z,0.60
2022-09-09T02:32:47.585Z,0.70
2022-09-09T02:35:19.432Z,0.70
2022-09-09T02:37:48.309Z,0.57
2022-09-09T02:40:17.540Z,0.70
2022-09-09T02:42:50.045Z,0.67
2022-09-09T02:45:22.795Z,0.80
2022-09-09T02:48:00.104Z,0.70
2022-09-09T02:50:35.174Z,0.80
2022-09-09T02:53:11.610Z,0.70
2022-09-09T02:55:43.356Z,0.80
2022-09-09T02:58:18.088Z,0.87
2022-09-09T03:00:49.259Z,0.53
2022-09-09T03:03:18.744Z,1.47
2022-09-09T03:05:47.765Z,0.87
2022-09-09T03:08:17.209Z,0.90
2022-09-09T03:10:45.520Z,0.83
2022-09-09T03:13:16.375Z,0.80
2022-09-09T03:15:44.635Z,0.70
2022-09-09T03:18:12.738Z,0.80
2022-09-09T03:20:43.160Z,0.80
2022-09-09T03:23:15.456Z,0.90
2022-09-09T03:25:49.489Z,0.90
2022-09-09T03:28:18.989Z,0.90
2022-09-09T03:30:47.435Z,1.17
2022-09-09T03:33:16.410Z,0.90
2022-09-09T03:35:49.834Z,0.90
2022-09-09T03:38:18.192Z,1.10
2022-09-09T03:40:52.298Z,0.90
2022-09-09T03:43:22.784Z,1.07
2022-09-09T03:45:51.087Z,1.20
2022-09-09T03:48:20.904Z,0.70
2022-09-09T03:50:50.345Z,0.83
2022-09-09T03:53:20.692Z,1.00
2022-09-09T03:55:50.976Z,0.80
2022-09-09T03:58:21.274Z,0.70
2022-09-09T04:00:56.784Z,0.70
2022-09-09T04:03:27.977Z,1.10
2022-09-09T04:05:57.976Z,0.87
2022-09-09T04:08:27.570Z,1.37
2022-09-09T04:10:59.422Z,0.87
2022-09-09T04:13:29.386Z,0.90
2022-09-09T04:15:59.817Z,0.93
2022-09-09T04:18:29.475Z,1.00
2022-09-09T04:20:58.653Z,0.90
2022-09-09T04:23:29.492Z,0.73
2022-09-09T04:25:59.454Z,0.80
2022-09-09T04:28:31.897Z,0.90
2022-09-09T04:31:07.168Z,0.90
2022-09-09T04:33:39.935Z,1.03
2022-09-09T04:36:09.553Z,0.80
2022-09-09T04:38:38.029Z,0.83
2022-09-09T04:41:06.679Z,0.90
2022-09-09T04:43:36.449Z,0.70
2022-09-09T04:46:05.099Z,0.90
2022-09-09T04:48:33.419Z,0.80
2022-09-09T04:51:03.781Z,1.67
2022-09-09T04:53:31.967Z,1.07
2022-09-09T04:56:08.081Z,1.03
2022-09-09T04:58:38.580Z,1.10
2022-09-09T05:01:09.031Z,0.93
2022-09-09T05:03:38.554Z,0.97
2022-09-09T05:06:09.553Z,0.90
2022-09-09T05:08:38.907Z,0.90
2022-09-09T05:11:21.826Z,0.80
2022-09-09T05:13:52.151Z,0.90
2022-09-09T05:16:21.679Z,0.93
2022-09-09T05:18:50.337Z,0.80
2022-09-09T05:21:20.519Z,0.77
2022-09-09T05:23:48.761Z,0.73
2022-09-09T05:26:18.602Z,0.97
2022-09-09T05:28:47.863Z,1.00
2022-09-09T05:31:20.119Z,0.70
2022-09-09T05:33:50.386Z,0.77
2022-09-09T05:36:21.237Z,0.90
2022-09-09T05:38:50.212Z,1.00
2022-09-09T05:41:19.602Z,1.87
2022-09-09T05:43:48.675Z,0.80
2022-09-09T05:46:20.011Z,0.90
2022-09-09T05:48:51.269Z,1.20
2022-09-09T05:51:23.342Z,1.13
2022-09-09T05:53:52.037Z,0.60
2022-09-09T05:56:22.919Z,0.90
2022-09-09T05:58:51.802Z,0.80
2022-09-09T06:01:23.170Z,0.53
2022-09-09T06:03:52.789Z,0.73
2022-09-09T06:06:22.883Z,0.57
2022-09-09T06:08:54.400Z,0.50
2022-09-09T06:11:24.178Z,0.90
2022-09-09T06:13:54.941Z,0.70
2022-09-09T06:16:26.625Z,0.60
2022-09-09T06:18:55.968Z,0.97
2022-09-09T06:21:25.730Z,0.90
2022-09-09T06:23:57.781Z,0.90
2022-09-09T06:26:31.627Z,0.70
2022-09-09T06:29:01.109Z,0.60
2022-09-09T06:31:32.840Z,0.70
2022-09-09T06:34:02.429Z,0.43
2022-09-09T06:36:32.209Z,0.80
2022-09-09T06:39:01.187Z,0.70
2022-09-09T06:41:31.486Z,0.53
2022-09-09T06:44:00.097Z,0.67
2022-09-09T06:46:31.385Z,0.50
2022-09-09T06:49:00.948Z,0.60
2022-09-09T06:51:30.915Z,0.70
2022-09-09T06:54:00.643Z,0.70
2022-09-09T06:56:31.268Z,0.60
2022-09-09T06:59:02.108Z,0.77
2022-09-09T07:01:33.801Z,0.70
2022-09-09T07:04:03.056Z,0.70
2022-09-09T07:06:32.825Z,0.60
2022-09-09T07:09:02.696Z,0.60
2022-09-09T07:11:32.535Z,1.20
2022-09-09T07:14:01.894Z,0.63
2022-09-09T07:16:32.970Z,0.80
2022-09-09T07:19:01.712Z,0.60
2022-09-09T07:21:31.248Z,0.50
2022-09-09T07:24:00.131Z,0.60
2022-09-09T07:26:30.728Z,0.60
2022-09-09T07:28:59.585Z,0.90
2022-09-09T07:31:31.820Z,0.63
2022-09-09T07:34:02.454Z,0.60
2022-09-09T07:36:33.551Z,1.83
2022-09-09T07:39:03.886Z,0.60
2022-09-09T07:41:35.315Z,0.70
2022-09-09T07:44:07.762Z,0.70
2022-09-09T07:46:37.050Z,0.90
2022-09-09T07:49:06.600Z,0.70
2022-09-09T07:51:37.239Z,0.53
2022-09-09T07:54:10.304Z,0.60
2022-09-09T07:56:40.492Z,0.83
2022-09-09T07:59:09.754Z,0.60
2022-09-09T08:01:40.622Z,1.10
2022-09-09T08:04:16.613Z,0.50
2022-09-09T08:06:47.554Z,0.57
2022-09-09T08:09:16.186Z,0.63
2022-09-09T08:11:45.283Z,1.17
2022-09-09T08:14:14.074Z,0.83
2022-09-09T08:16:44.342Z,0.80
2022-09-09T08:19:16.554Z,0.63
2022-09-09T08:21:46.959Z,0.73
2022-09-09T08:24:16.122Z,1.03
2022-09-09T08:26:46.885Z,0.70
2022-09-09T08:29:16.017Z,0.80
2022-09-09T08:31:46.753Z,0.60
2022-09-09T08:34:17.226Z,0.70
2022-09-09T08:36:47.022Z,1.00
2022-09-09T08:39:17.077Z,0.67
2022-09-09T08:42:12.936Z,0.70
2022-09-09T08:45:06.525Z,0.70
2022-09-09T08:47:46.828Z,0.40
2022-09-09T08:50:25.675Z,0.70
2022-09-09T08:53:02.786Z,0.60
2022-09-09T08:55:39.829Z,0.50
2022-09-09T08:58:15.053Z,0.53
2022-09-09T09:00:54.412Z,0.60
2022-09-09T09:03:31.392Z,0.60
2022-09-09T09:06:08.665Z,0.60
2022-09-09T09:08:46.371Z,0.70
2022-09-09T09:11:14.828Z,0.60
2022-09-09T09:13:48.992Z,0.87
2022-09-09T09:16:26.160Z,0.60
2022-09-09T09:18:56.182Z,0.40
2022-09-09T09:21:34.690Z,0.50
2022-09-09T09:24:04.293Z,0.63
2022-09-09T09:26:36.298Z,0.60
2022-09-09T09:29:14.557Z,0.40
2022-09-09T09:31:46.803Z,0.60
2022-09-09T09:34:15.326Z,0.60
2022-09-09T09:36:48.465Z,0.57
2022-09-09T09:42:20.364Z,0.40
2022-09-09T09:44:52.130Z,0.50
2022-09-09T09:47:22.348Z,0.47
2022-09-09T09:49:57.633Z,0.70
2022-09-09T09:52:29.387Z,0.50
2022-09-09T09:55:05.264Z,0.60
2022-09-09T09:57:36.644Z,0.50
2022-09-09T10:00:15.766Z,0.70
2022-09-09T10:02:45.714Z,0.63
2022-09-09T10:05:18.405Z,0.60
2022-09-09T10:08:02.219Z,0.73
2022-09-09T10:10:49.754Z,0.70
2022-09-09T10:13:25.008Z,0.50
2022-09-09T10:16:05.522Z,0.60
2022-09-09T10:18:45.284Z,0.43
2022-09-09T10:21:31.074Z,0.50
2022-09-09T10:24:26.386Z,0.77
2022-09-09T10:27:04.384Z,0.67
2022-09-09T10:29:45.181Z,0.47
2022-09-09T10:32:32.829Z,0.68
2022-09-09T10:35:07.096Z,0.50
2022-09-09T10:37:51.765Z,0.50
2022-09-09T10:40:31.583Z,0.60
2022-09-09T10:43:09.438Z,0.63
2022-09-09T10:45:47.920Z,0.63
2022-09-09T10:48:44.404Z,0.73
2022-09-09T10:51:28.097Z,0.70
2022-09-09T10:54:11.761Z,0.57
2022-09-09T10:56:43.220Z,0.60
2022-09-09T10:59:16.587Z,0.70
2022-09-09T11:01:50.374Z,0.77
2022-09-09T11:04:24.535Z,0.70
2022-09-09T11:06:56.559Z,0.50
2022-09-09T11:09:28.422Z,1.20
2022-09-09T11:11:59.209Z,0.70
2022-09-09T11:14:36.818Z,0.70
2022-09-09T11:17:11.274Z,0.80
2022-09-09T11:19:42.230Z,0.80
2022-09-09T11:22:21.401Z,0.60
2022-09-09T11:24:53.233Z,0.60
2022-09-09T11:27:27.374Z,0.50
2022-09-09T11:30:08.937Z,0.60
2022-09-09T11:33:15.387Z,0.80
2022-09-09T11:35:55.785Z,0.63
2022-09-09T11:38:28.869Z,0.50
2022-09-09T11:41:01.664Z,0.80
2022-09-09T11:43:33.982Z,0.70
2022-09-09T11:46:05.067Z,0.93
2022-09-09T11:48:36.173Z,0.87
2022-09-09T11:51:11.014Z,0.77
2022-09-09T11:53:51.349Z,0.80
2022-09-09T11:56:32.167Z,0.93
2022-09-09T11:59:04.786Z,0.80
2022-09-09T12:01:41.108Z,0.80
2022-09-09T12:04:34.956Z,0.70
2022-09-09T12:07:07.374Z,1.13
2022-09-09T12:09:52.767Z,0.80
2022-09-09T12:12:27.059Z,0.90
2022-09-09T12:15:03.173Z,0.87
2022-09-09T12:17:34.477Z,1.00
2022-09-09T12:20:11.106Z,1.00
2022-09-09T12:22:51.391Z,1.33
2022-09-09T12:25:28.915Z,1.10
2022-09-09T12:28:08.056Z,0.80
2022-09-09T12:30:46.783Z,0.73
2022-09-09T12:33:18.974Z,1.00
2022-09-09T12:35:52.269Z,0.80
2022-09-09T12:38:29.693Z,1.00
2022-09-09T12:40:59.391Z,0.77
2022-09-09T12:43:29.362Z,0.90
2022-09-09T12:46:02.349Z,0.87
2022-09-09T12:48:43.632Z,1.00
2022-09-09T12:51:21.563Z,0.80
2022-09-09T12:53:51.306Z,1.30
2022-09-09T12:56:27.655Z,0.90
2022-09-09T12:58:59.277Z,1.00
2022-09-09T13:01:31.570Z,0.70
2022-09-09T13:03:59.965Z,1.00
2022-09-09T13:06:30.231Z,1.10
2022-09-09T13:09:00.833Z,1.10
2022-09-09T13:11:33.540Z,1.10
2022-09-09T13:14:02.225Z,0.97
2022-09-09T13:16:35.776Z,0.83
2022-09-09T13:19:11.140Z,1.10
2022-09-09T13:21:40.568Z,1.10
2022-09-09T13:24:24.231Z,1.60
2022-09-09T13:26:57.576Z,0.80
2022-09-09T13:29:26.089Z,1.20
2022-09-09T13:31:56.820Z,1.00
2022-09-09T13:34:32.055Z,0.90
2022-09-09T13:37:03.695Z,1.20
2022-09-09T13:39:32.248Z,1.10
2022-09-09T13:42:01.108Z,1.23
2022-09-09T13:44:31.331Z,1.30
2022-09-09T13:47:10.365Z,1.30
2022-09-09T13:49:39.037Z,1.10
2022-09-09T13:52:11.992Z,1.33
2022-09-09T13:54:40.424Z,1.00
2022-09-09T13:57:16.989Z,1.20
2022-09-09T14:00:03.730Z,1.27
2022-09-09T14:02:35.026Z,1.27
2022-09-09T14:05:03.281Z,1.10
2022-09-09T14:07:31.557Z,1.10
2022-09-09T14:10:01.436Z,1.20
2022-09-09T14:12:29.745Z,1.20
2022-09-09T14:14:58.104Z,0.90
2022-09-09T14:17:26.372Z,1.60
2022-09-09T14:19:56.055Z,1.30
2022-09-09T14:22:24.473Z,1.10
2022-09-09T14:24:53.613Z,1.70
2022-09-09T14:27:21.866Z,1.50
2022-09-09T14:29:50.058Z,1.20
2022-09-09T14:32:18.333Z,1.30
2022-09-09T14:34:46.547Z,1.20
2022-09-09T14:37:16.100Z,1.03
2022-09-09T14:39:45.301Z,1.33
2022-09-09T14:42:13.650Z,1.20
2022-09-09T14:44:42.182Z,1.23
2022-09-09T14:47:11.278Z,1.00
2022-09-09T14:49:41.603Z,1.00
2022-09-09T14:52:12.463Z,1.17
2022-09-09T14:54:41.938Z,1.00
2022-09-09T14:57:10.142Z,1.00
2022-09-09T14:59:38.764Z,0.70
2022-09-09T15:02:07.919Z,0.90
2022-09-09T15:04:36.498Z,0.90
2022-09-09T15:07:05.034Z,1.00
2022-09-09T15:09:33.639Z,0.90
2022-09-09T15:12:03.888Z,0.80
2022-09-09T15:14:32.841Z,1.10
2022-09-09T15:17:01.051Z,1.00
2022-09-09T15:19:29.341Z,1.00
2022-09-09T15:21:57.989Z,0.90
2022-09-09T15:24:27.010Z,1.20
2022-09-09T15:26:55.432Z,1.00
2022-09-09T15:29:25.044Z,1.10
2022-09-09T15:31:53.320Z,0.90
2022-09-09T15:34:21.442Z,0.93
2022-09-09T15:36:49.635Z,0.90
2022-09-09T15:39:19.984Z,1.07
2022-09-09T15:41:49.689Z,0.70
2022-09-09T15:44:20.154Z,0.80
2022-09-09T15:46:52.465Z,0.90
2022-09-09T15:49:23.233Z,0.87
2022-09-09T15:51:54.746Z,1.00
2022-09-09T15:54:25.266Z,1.00
2022-09-09T15:56:55.933Z,1.40
2022-09-09T15:59:24.717Z,0.97
2022-09-09T16:01:56.139Z,1.10
2022-09-09T16:04:26.545Z,1.00
2022-09-09T16:06:56.555Z,0.93
2022-09-09T16:09:24.692Z,1.00
2022-09-09T16:11:54.246Z,1.07
2022-09-09T16:14:23.101Z,0.90
2022-09-09T16:16:51.245Z,1.00
2022-09-09T16:19:21.015Z,0.93
2022-09-09T16:21:51.166Z,0.70
2022-09-09T16:24:21.685Z,0.83
2022-09-09T16:26:51.748Z,0.90
2022-09-09T16:29:20.745Z,0.90
2022-09-09T16:31:49.177Z,0.90
2022-09-09T16:34:18.753Z,1.00
2022-09-09T16:36:49.767Z,1.00
2022-09-09T16:39:19.937Z,1.10
2022-09-09T16:41:49.720Z,1.00
2022-09-09T16:44:19.368Z,1.00
2022-09-09T16:46:49.775Z,1.00
2022-09-09T16:49:18.470Z,1.27
2022-09-09T16:51:49.490Z,1.27
2022-09-09T16:54:19.361Z,1.10
2022-09-09T16:56:49.496Z,1.20
2022-09-09T16:59:19.543Z,1.07
2022-09-09T17:01:51.282Z,1.23
2022-09-09T17:04:22.500Z,0.80
2022-09-09T17:06:54.383Z,1.03
2022-09-09T17:09:24.505Z,1.40
2022-09-09T17:11:53.568Z,1.17
2022-09-09T17:14:24.893Z,1.27
2022-09-09T17:16:53.243Z,1.07
2022-09-09T17:19:21.389Z,1.20
2022-09-09T17:22:16.925Z,1.17
2022-09-09T17:24:41.455Z,1.10
2022-09-09T17:27:10.318Z,1.40
2022-09-09T17:29:38.696Z,1.40
2022-09-09T17:32:08.288Z,1.50
2022-09-09T17:34:37.139Z,1.60
2022-09-09T17:37:07.359Z,1.43
2022-09-09T17:39:35.535Z,1.40
2022-09-09T17:42:04.097Z,1.43
2022-09-09T17:44:33.386Z,2.47
2022-09-09T17:47:01.826Z,1.33
2022-09-09T17:49:30.206Z,1.47
2022-09-09T17:51:58.685Z,1.60
2022-09-09T17:54:28.139Z,1.53
2022-09-09T17:56:57.945Z,1.50
2022-09-09T17:59:26.617Z,1.73
2022-09-09T18:01:55.541Z,1.60
2022-09-09T18:04:23.930Z,1.40
2022-09-09T18:06:54.108Z,1.40
2022-09-09T18:09:24.334Z,1.87
2022-09-09T18:11:56.707Z,1.47
2022-09-09T18:14:27.233Z,1.60
2022-09-09T18:16:56.126Z,1.93
2022-09-09T18:19:26.424Z,2.10
2022-09-09T18:21:57.474Z,1.40
2022-09-09T18:24:29.183Z,1.90
2022-09-09T18:26:58.695Z,2.10
2022-09-09T18:29:27.225Z,2.30
2022-09-09T18:31:56.873Z,1.80
2022-09-09T18:34:28.767Z,1.90
2022-09-09T18:36:58.038Z,1.77
2022-09-09T18:39:28.304Z,1.70
2022-09-09T18:42:01.178Z,1.87
2022-09-09T18:44:32.262Z,1.70
2022-09-09T18:47:01.017Z,1.40
2022-09-09T18:49:29.305Z,1.70
2022-09-09T18:51:57.961Z,2.00
2022-09-09T18:54:29.863Z,1.87
2022-09-09T18:57:00.962Z,2.13
2022-09-09T18:59:30.212Z,1.93
2022-09-09T19:01:59.091Z,2.00
2022-09-09T19:04:28.038Z,2.30
2022-09-09T19:06:58.774Z,2.03
2022-09-09T19:09:29.764Z,1.80
2022-09-09T19:12:01.079Z,2.17
2022-09-09T19:14:29.619Z,2.30
2022-09-09T19:16:57.949Z,1.80
2022-09-09T19:19:28.488Z,2.07
2022-09-09T19:21:57.791Z,1.63
2022-09-09T19:24:28.522Z,1.60
2022-09-09T19:27:02.908Z,2.10
2022-09-09T19:29:33.518Z,1.80
2022-09-09T19:34:52.254Z,1.53
2022-09-09T19:37:20.569Z,1.90
2022-09-09T19:39:49.580Z,2.00
2022-09-09T19:42:19.497Z,2.10
2022-09-09T19:44:47.855Z,1.87
2022-09-09T19:47:16.681Z,1.90
2022-09-09T19:49:47.482Z,1.80
2022-09-09T19:52:17.024Z,1.90
2022-09-09T19:54:45.584Z,1.93
2022-09-09T19:57:14.159Z,1.90
2022-09-09T19:59:44.010Z,2.27
2022-09-09T20:02:15.682Z,1.80
2022-09-09T20:04:44.813Z,2.00
2022-09-09T20:07:13.125Z,2.00
2022-09-09T20:09:41.624Z,1.77
2022-09-09T20:12:10.045Z,2.03
2022-09-09T20:14:39.738Z,1.60
2022-09-09T20:17:10.300Z,2.07
2022-09-09T20:19:39.876Z,2.13
2022-09-09T20:22:08.112Z,2.37
2022-09-09T20:24:37.367Z,2.00
2022-09-09T20:27:07.116Z,2.07
2022-09-09T20:29:35.196Z,2.07
2022-09-09T20:32:03.935Z,2.13
2022-09-09T20:34:33.641Z,1.97
2022-09-09T20:37:02.842Z,2.00
2022-09-09T20:39:30.991Z,1.83
2022-09-09T20:41:59.390Z,2.10
2022-09-09T20:44:29.617Z,1.90
2022-09-09T20:47:02.928Z,2.10
2022-09-09T20:49:31.171Z,2.53
2022-09-09T20:52:00.706Z,2.20
2022-09-09T20:54:30.701Z,2.63
2022-09-09T20:56:59.908Z,2.27
2022-09-09T20:59:29.761Z,2.27
2022-09-09T21:01:58.734Z,2.40
2022-09-09T21:04:27.957Z,2.27
2022-09-09T21:06:56.174Z,2.17
2022-09-09T21:09:25.777Z,2.57
2022-09-09T21:11:54.541Z,2.03
2022-09-09T21:14:22.700Z,2.50
2022-09-09T21:16:51.459Z,2.50
2022-09-09T21:19:19.749Z,2.43
2022-09-09T21:21:48.108Z,1.97
2022-09-09T21:24:16.480Z,2.30
2022-09-09T21:26:45.990Z,2.10
2022-09-09T21:29:14.218Z,2.30
2022-09-09T21:31:43.329Z,2.17
2022-09-09T21:34:13.503Z,2.47
2022-09-09T21:36:42.102Z,2.60
2022-09-09T21:39:10.412Z,2.40
2022-09-09T21:41:39.032Z,2.63
2022-09-09T21:44:14.174Z,2.30
2022-09-09T21:46:43.399Z,2.30
2022-09-09T21:49:11.789Z,2.27
2022-09-09T21:51:39.942Z,2.30
2022-09-09T21:54:08.203Z,2.57
2022-09-09T21:56:36.784Z,2.07
2022-09-09T21:59:05.325Z,2.50
2022-09-09T22:01:34.982Z,2.57
2022-09-09T22:04:03.894Z,2.00
2022-09-09T22:06:32.532Z,2.60
2022-09-09T22:09:01.788Z,2.57
2022-09-09T22:11:31.347Z,2.60
2022-09-09T22:13:59.676Z,2.33
2022-09-09T22:16:27.840Z,2.57
2022-09-09T22:18:59.941Z,2.30
2022-09-09T22:21:30.187Z,2.60
2022-09-09T22:24:00.212Z,2.40
2022-09-09T22:26:31.808Z,2.30
2022-09-09T22:29:00.443Z,2.30
2022-09-09T22:31:29.607Z,2.63
2022-09-09T22:33:59.804Z,2.20
2022-09-09T22:36:27.997Z,2.63
2022-09-09T22:38:57.106Z,2.73
2022-09-09T22:41:26.709Z,2.63
2022-09-09T22:43:54.966Z,3.03
2022-09-09T22:46:24.128Z,2.50
2022-09-09T22:48:52.368Z,3.20
2022-09-09T22:51:21.933Z,2.90
2022-09-09T22:53:50.023Z,2.87
2022-09-09T22:56:20.842Z,3.30
2022-09-09T22:58:55.768Z,4.70
2022-09-09T23:01:25.652Z,4.17
2022-09-09T23:03:55.032Z,3.47
2022-09-09T23:06:27.047Z,5.70
2022-09-09T23:08:56.884Z,6.67
2022-09-09T23:11:28.766Z,6.13
2022-09-09T23:14:00.222Z,6.40
2022-09-09T23:16:29.986Z,6.97
2022-09-09T23:18:59.548Z,5.77
2022-09-09T23:21:30.113Z,6.70
2022-09-09T23:24:00.492Z,7.10
2022-09-09T23:26:29.922Z,6.17
2022-09-09T23:28:59.838Z,5.90
2022-09-09T23:31:30.955Z,5.10
2022-09-09T23:34:01.109Z,5.63
2022-09-09T23:36:32.101Z,5.03
2022-09-09T23:39:02.185Z,5.07
2022-09-09T23:41:31.360Z,4.33
2022-09-09T23:43:59.618Z,4.50
2022-09-09T23:46:29.356Z,4.50
2022-09-09T23:48:58.908Z,4.70
2022-09-09T23:51:30.857Z,3.93
2022-09-09T23:54:01.593Z,4.27
2022-09-09T23:56:32.694Z,4.23
2022-09-09T23:59:01.215Z,3.80
